Grigg, Illinois
Current Conditions -  °F | °C
As of 1:35 AM on Thursday 18 Dec 2014 (Local Time) from KSAR Reporting Station
Overcast Overcast  
Wind Chill: 26°   Ceiling: 8500
Heat Index: 31°   Visibility: 10mi
Dew Point: 27°   Wind: 5mph
Humidity: 87%   Direction: 70°ENE
Pressure: 30.29"   Gusts: NA
Location:  38.1575°N, 89.9813°W
Report Text: KSAR 180735Z AUTO 07004KT 10SM BKN085 OVC090 M01/M03 A3029 RMK AO2 T10071026
Loading
Personal Weather Stations






























Interactive Weather Map New forecast layout! Learn more

10-Day Weather Forecast

Advertisements
Track Severe Weather on mobile